Time;durP1;ratioP1;P1;durP2;ratioP2;P2;SDS_P1;SDS_P2;PMS_P1;PMS_P2;Temp;Humidity;BMP_temperature;BMP_pressure;BME280_temperature;BME280_humidity;BME280_pressure;Samples;Min_cycle;Max_cycle;Signal;HPM_P1;HPM_P2
2023/12/17 00:02:21;;;;;;;1.05;0.60;;;2.40;99.90;;;;;;4953844;28;20195;-81
2023/12/17 00:04:48;;;;;;;1.00;0.50;;;2.40;99.90;;;;;;4971401;28;20188;-82
2023/12/17 00:07:16;;;;;;;0.93;0.50;;;2.40;99.90;;;;;;4971334;28;20250;-81
2023/12/17 00:09:43;;;;;;;1.13;0.43;;;2.40;99.90;;;;;;4971109;28;20227;-83
2023/12/17 00:12:11;;;;;;;0.68;0.32;;;2.40;99.90;;;;;;4953819;28;20195;-82
2023/12/17 00:14:41;;;;;;;0.40;0.38;;;2.40;99.90;;;;;;4971403;28;20689;-82
2023/12/17 00:17:10;;;;;;;0.60;0.50;;;2.40;99.90;;;;;;4971416;28;20176;-82
2023/12/17 00:19:37;;;;;;;0.82;0.40;;;2.40;99.90;;;;;;4953515;28;20650;-83
2023/12/17 00:22:05;;;;;;;0.43;0.30;;;2.30;99.90;;;;;;4970669;28;20199;-83
2023/12/17 00:24:32;;;;;;;0.40;0.38;;;2.40;99.90;;;;;;4954001;28;20211;-82
2023/12/17 00:27:00;;;;;;;0.93;0.40;;;2.40;99.90;;;;;;4971069;28;20191;-82
2023/12/17 00:29:28;;;;;;;0.43;0.40;;;2.40;99.90;;;;;;4971057;28;20184;-83
2023/12/17 00:31:55;;;;;;;0.98;0.32;;;2.40;99.90;;;;;;4953312;28;20572;-82
2023/12/17 00:34:27;;;;;;;0.40;0.30;;;2.40;99.90;;;;;;4970920;28;20173;-81
2023/12/17 00:36:55;;;;;;;0.40;0.30;;;2.40;99.90;;;;;;4971169;28;20271;-82
2023/12/17 00:39:23;;;;;;;0.40;0.32;;;2.40;99.90;;;;;;4970939;28;20196;-81
2023/12/17 00:41:50;;;;;;;0.38;0.30;;;2.40;99.90;;;;;;4970674;28;20192;-81
2023/12/17 00:44:18;;;;;;;0.60;0.40;;;2.40;99.90;;;;;;4970762;28;20304;-80
2023/12/17 00:46:45;;;;;;;0.60;0.30;;;2.40;99.90;;;;;;4970699;28;20188;-81
2023/12/17 00:49:12;;;;;;;0.80;0.40;;;2.40;99.90;;;;;;4970801;28;20286;-82
2023/12/17 00:51:40;;;;;;;0.47;0.30;;;2.40;99.90;;;;;;4969335;28;20309;-81
2023/12/17 00:54:08;;;;;;;0.57;0.40;;;2.40;99.90;;;;;;4970922;28;20191;-83
2023/12/17 00:56:35;;;;;;;0.55;0.40;;;2.40;99.90;;;;;;4970898;28;20661;-79
2023/12/17 00:59:03;;;;;;;1.08;0.40;;;2.50;99.90;;;;;;4971176;28;20200;-82
2023/12/17 01:01:30;;;;;;;0.40;0.40;;;2.50;99.90;;;;;;4971674;28;20195;-82
2023/12/17 01:03:57;;;;;;;2.28;0.40;;;2.60;99.90;;;;;;4970610;28;20723;-82
2023/12/17 01:06:25;;;;;;;0.60;0.40;;;2.60;99.90;;;;;;4970473;28;20180;-82
2023/12/17 01:08:52;;;;;;;0.52;0.40;;;2.60;99.90;;;;;;4970572;28;20192;-82
2023/12/17 01:11:20;;;;;;;1.20;0.45;;;2.60;99.90;;;;;;4970490;28;20188;-83
2023/12/17 01:13:47;;;;;;;3.05;0.60;;;2.60;99.90;;;;;;4952921;28;20498;-83
2023/12/17 01:16:15;;;;;;;1.02;0.60;;;2.60;99.90;;;;;;4970243;28;20266;-82
2023/12/17 01:18:42;;;;;;;1.58;0.60;;;2.70;99.90;;;;;;4970143;28;20188;-81
2023/12/17 01:21:10;;;;;;;0.70;0.50;;;2.60;99.90;;;;;;4970032;28;20199;-82
2023/12/17 01:23:38;;;;;;;1.30;0.70;;;2.70;99.90;;;;;;4952775;28;20222;-83
2023/12/17 01:26:05;;;;;;;1.42;0.73;;;2.70;99.90;;;;;;4970365;28;20272;-82
2023/12/17 01:28:33;;;;;;;0.88;0.60;;;2.70;99.90;;;;;;4968991;28;20267;-81
2023/12/17 01:31:01;;;;;;;1.27;0.65;;;2.70;99.90;;;;;;4952977;28;20950;-82
2023/12/17 01:33:28;;;;;;;2.10;0.75;;;2.80;99.90;;;;;;4952639;28;20576;-82
2023/12/17 01:35:56;;;;;;;1.10;0.80;;;2.80;99.90;;;;;;4970543;28;20188;-83
2023/12/17 01:38:23;;;;;;;1.30;0.80;;;2.90;99.90;;;;;;4970249;28;20188;-81
2023/12/17 01:40:51;;;;;;;1.75;0.90;;;2.90;99.90;;;;;;4970249;28;20598;-80
2023/12/17 01:43:18;;;;;;;2.47;0.90;;;3.00;99.90;;;;;;4952845;28;20203;-80
2023/12/17 01:45:46;;;;;;;2.00;1.00;;;2.90;99.90;;;;;;4969979;28;20180;-82
2023/12/17 01:48:13;;;;;;;2.33;1.25;;;2.90;99.90;;;;;;4972730;28;20198;-83
2023/12/17 01:50:42;;;;;;;1.85;1.00;;;2.90;99.90;;;;;;4973527;28;20227;-82
2023/12/17 01:53:09;;;;;;;1.92;1.02;;;3.00;99.90;;;;;;4972653;28;20192;-82
2023/12/17 01:55:37;;;;;;;1.80;0.93;;;3.10;99.90;;;;;;4973999;28;20279;-83
2023/12/17 01:58:04;;;;;;;1.65;0.98;;;3.00;99.90;;;;;;4973797;28;20670;-81
2023/12/17 02:00:32;;;;;;;2.33;1.40;;;3.10;99.90;;;;;;4956383;28;20287;-81
2023/12/17 02:03:00;;;;;;;2.47;1.40;;;3.00;99.90;;;;;;4972364;28;20200;-82
2023/12/17 02:05:27;;;;;;;1.73;0.98;;;3.10;99.90;;;;;;4973423;28;20188;-83
2023/12/17 02:07:55;;;;;;;1.58;0.95;;;3.00;99.90;;;;;;4971978;28;20209;-82
2023/12/17 02:10:22;;;;;;;1.45;0.95;;;3.00;99.90;;;;;;4973510;28;20188;-81
2023/12/17 02:12:50;;;;;;;2.20;1.25;;;3.00;99.90;;;;;;4973602;28;20178;-84
2023/12/17 02:15:17;;;;;;;1.80;1.00;;;3.00;99.90;;;;;;4972710;28;20211;-83
2023/12/17 02:17:45;;;;;;;3.53;1.30;;;3.00;99.90;;;;;;4973651;28;20234;-84
2023/12/17 02:20:13;;;;;;;2.75;0.80;;;3.00;99.90;;;;;;4955924;28;20199;-82
2023/12/17 02:22:43;;;;;;;2.33;1.20;;;3.00;99.90;;;;;;4973369;28;20769;-84
2023/12/17 02:25:11;;;;;;;2.17;1.17;;;3.00;99.90;;;;;;4971922;28;20272;-82
2023/12/17 02:27:39;;;;;;;1.75;0.95;;;3.00;99.90;;;;;;4971844;28;20200;-83
2023/12/17 02:30:08;;;;;;;1.27;0.80;;;3.10;99.90;;;;;;4973187;28;20251;-82
2023/12/17 02:32:35;;;;;;;2.15;0.77;;;3.10;99.90;;;;;;4973205;28;20184;-83
2023/12/17 02:35:03;;;;;;;1.42;0.82;;;3.10;99.90;;;;;;4972932;28;20205;-82
2023/12/17 02:37:30;;;;;;;1.25;0.90;;;3.10;99.90;;;;;;4972959;28;20602;-83
2023/12/17 02:39:58;;;;;;;1.52;0.82;;;3.10;99.90;;;;;;4972008;28;20245;-83
2023/12/17 02:42:25;;;;;;;1.20;0.70;;;3.20;99.90;;;;;;4973283;28;20197;-83
2023/12/17 02:44:53;;;;;;;1.20;0.80;;;3.10;99.90;;;;;;4972783;28;20226;-81
2023/12/17 02:47:20;;;;;;;1.67;0.98;;;3.20;99.90;;;;;;4972937;28;20250;-83
2023/12/17 02:49:48;;;;;;;1.40;0.73;;;3.30;99.90;;;;;;4972733;28;20213;-84
2023/12/17 02:52:15;;;;;;;0.98;0.65;;;3.30;99.90;;;;;;4972626;28;20250;-83
2023/12/17 02:54:43;;;;;;;2.13;0.77;;;3.40;99.90;;;;;;4972786;28;20190;-82
2023/12/17 02:57:10;;;;;;;1.88;0.90;;;3.40;99.90;;;;;;4972790;28;20188;-83
2023/12/17 02:59:40;;;;;;;0.82;0.70;;;3.50;99.90;;;;;;4972694;28;20184;-82
2023/12/17 03:02:07;;;;;;;1.98;0.73;;;3.40;99.90;;;;;;4972743;28;20628;-83
2023/12/17 03:04:35;;;;;;;1.40;0.70;;;3.40;99.90;;;;;;4972563;28;20200;-82
2023/12/17 03:07:02;;;;;;;1.08;0.68;;;3.50;99.90;;;;;;4972264;28;20203;-82
2023/12/17 03:09:30;;;;;;;1.17;0.65;;;3.40;99.90;;;;;;4972636;28;20183;-81
2023/12/17 03:11:57;;;;;;;0.85;0.50;;;3.50;99.90;;;;;;4972543;28;20188;-82
2023/12/17 03:14:25;;;;;;;1.23;0.75;;;3.50;99.90;;;;;;4972601;28;20184;-83
2023/12/17 03:16:52;;;;;;;0.68;0.52;;;3.50;99.90;;;;;;4972515;28;20207;-83
2023/12/17 03:19:19;;;;;;;1.25;0.60;;;3.50;99.90;;;;;;4972846;28;20195;-83
2023/12/17 03:21:47;;;;;;;0.88;0.70;;;3.50;99.90;;;;;;4972560;28;20203;-84
2023/12/17 03:24:15;;;;;;;2.45;0.70;;;3.50;99.90;;;;;;4972384;28;20204;-81
2023/12/17 03:26:42;;;;;;;1.15;0.68;;;3.50;99.90;;;;;;4972255;28;20824;-80
2023/12/17 03:29:10;;;;;;;0.75;0.60;;;3.50;99.90;;;;;;4972191;28;20646;-83
2023/12/17 03:31:37;;;;;;;2.22;1.00;;;3.60;99.90;;;;;;4972246;28;20195;-83
2023/12/17 03:34:05;;;;;;;3.40;0.80;;;3.50;99.90;;;;;;4971910;28;20191;-80
2023/12/17 03:36:32;;;;;;;2.13;0.70;;;3.50;99.90;;;;;;4954759;28;20661;-82
2023/12/17 03:39:00;;;;;;;1.65;1.00;;;3.40;99.90;;;;;;4972202;28;20197;-82
2023/12/17 03:41:28;;;;;;;1.42;0.80;;;3.50;99.90;;;;;;4972079;28;20196;-81
2023/12/17 03:43:57;;;;;;;3.40;1.02;;;3.50;99.90;;;;;;4954983;28;20231;-81
2023/12/17 03:46:25;;;;;;;1.98;1.00;;;3.60;99.90;;;;;;4972116;28;20188;-84
2023/12/17 03:48:53;;;;;;;1.83;1.00;;;3.50;99.90;;;;;;4971876;28;20236;-82
2023/12/17 03:51:21;;;;;;;2.60;1.00;;;3.50;99.90;;;;;;4971778;28;20310;-82
2023/12/17 03:53:49;;;;;;;2.97;0.90;;;3.50;99.90;;;;;;4955258;28;20190;-82
2023/12/17 03:56:17;;;;;;;1.42;0.90;;;3.60;99.90;;;;;;4971674;28;20191;-85
2023/12/17 03:58:44;;;;;;;2.17;1.00;;;3.60;99.90;;;;;;4954313;28;20805;-82
2023/12/17 04:01:11;;;;;;;1.83;1.05;;;3.60;99.90;;;;;;4971741;28;20589;-82
2023/12/17 04:03:39;;;;;;;0.95;0.60;;;3.60;99.90;;;;;;4971650;28;20207;-83
2023/12/17 04:06:07;;;;;;;1.60;0.85;;;3.70;99.90;;;;;;4971798;28;20240;-82
2023/12/17 04:08:35;;;;;;;1.08;0.75;;;3.60;99.90;;;;;;4953807;28;20700;-83
2023/12/17 04:11:03;;;;;;;1.60;0.80;;;3.60;99.90;;;;;;4971386;28;20196;-80
2023/12/17 04:13:30;;;;;;;2.63;0.75;;;3.60;99.90;;;;;;4971365;28;20192;-82
2023/12/17 04:15:58;;;;;;;1.58;0.82;;;3.70;99.90;;;;;;4971061;28;20191;-84
2023/12/17 04:18:25;;;;;;;2.60;0.70;;;3.70;99.90;;;;;;4971205;28;20654;-84
2023/12/17 04:20:53;;;;;;;1.65;0.70;;;3.70;99.90;;;;;;4970946;28;20558;-81
2023/12/17 04:23:20;;;;;;;2.70;0.80;;;3.60;99.90;;;;;;4971179;28;20194;-83
2023/12/17 04:25:48;;;;;;;1.65;0.75;;;3.60;99.90;;;;;;4971323;28;20265;-84
2023/12/17 04:28:15;;;;;;;3.17;0.82;;;3.70;99.90;;;;;;4971436;28;20195;-83
2023/12/17 04:30:42;;;;;;;1.98;0.80;;;3.80;99.90;;;;;;4970892;28;20264;-79
2023/12/17 04:33:10;;;;;;;1.35;0.80;;;3.80;99.90;;;;;;4970780;28;20554;-83
2023/12/17 04:35:38;;;;;;;1.40;0.95;;;3.70;99.90;;;;;;4970875;28;20239;-84
2023/12/17 04:38:05;;;;;;;2.10;1.10;;;3.70;99.90;;;;;;4953470;28;20204;-83
2023/12/17 04:40:33;;;;;;;2.08;0.90;;;3.70;99.90;;;;;;4969734;28;20192;-83
2023/12/17 04:43:00;;;;;;;3.58;1.10;;;3.80;99.90;;;;;;4969576;28;20195;-82
2023/12/17 04:45:28;;;;;;;1.20;0.85;;;3.70;99.90;;;;;;4970768;28;20212;-82
2023/12/17 04:47:56;;;;;;;4.40;1.13;;;3.70;99.90;;;;;;4953935;28;20184;-82
2023/12/17 04:50:24;;;;;;;2.30;0.80;;;3.70;99.90;;;;;;4953274;28;20227;-83
2023/12/17 04:52:52;;;;;;;2.85;1.10;;;3.70;99.90;;;;;;4953482;28;20171;-83
2023/12/17 04:55:19;;;;;;;2.45;0.77;;;3.80;99.90;;;;;;4969299;28;20200;-81
2023/12/17 04:57:47;;;;;;;4.80;1.10;;;3.80;99.90;;;;;;4970408;28;20658;-83
2023/12/17 05:00:15;;;;;;;7.22;1.05;;;3.80;99.90;;;;;;4970601;28;20187;-83
2023/12/17 05:02:42;;;;;;;1.70;0.85;;;3.70;99.90;;;;;;4953319;28;20188;-81
2023/12/17 05:05:10;;;;;;;6.82;1.10;;;3.70;99.90;;;;;;4953258;28;20295;-83
2023/12/17 05:07:38;;;;;;;9.20;1.30;;;3.70;99.90;;;;;;4970587;28;20307;-81
2023/12/17 05:10:06;;;;;;;5.95;1.08;;;3.70;99.90;;;;;;4970475;28;20642;-81
2023/12/17 05:12:34;;;;;;;4.82;1.33;;;3.80;99.90;;;;;;4970213;28;20216;-81
2023/12/17 05:15:01;;;;;;;3.88;1.05;;;3.80;99.90;;;;;;4953002;28;20654;-82
2023/12/17 05:17:31;;;;;;;2.95;1.20;;;3.80;99.90;;;;;;4970276;28;20180;-83
2023/12/17 05:19:58;;;;;;;6.45;1.45;;;3.80;99.90;;;;;;4970057;28;20188;-84
2023/12/17 05:22:26;;;;;;;12.43;1.35;;;3.80;99.90;;;;;;4951768;28;20200;-84
2023/12/17 05:24:53;;;;;;;4.63;1.20;;;3.80;99.90;;;;;;4968973;28;20223;-83
2023/12/17 05:27:21;;;;;;;9.20;1.55;;;3.80;99.90;;;;;;4968829;28;20224;-84
2023/12/17 05:29:48;;;;;;;4.03;1.05;;;3.80;99.90;;;;;;4952859;28;20219;-82
2023/12/17 05:32:16;;;;;;;6.47;1.73;;;3.60;99.90;;;;;;4970235;28;20190;-82
2023/12/17 05:34:43;;;;;;;11.48;1.42;;;3.70;99.90;;;;;;4952787;28;20220;-83
2023/12/17 05:37:11;;;;;;;7.72;1.73;;;3.80;99.90;;;;;;4970045;28;20218;-81
2023/12/17 05:39:39;;;;;;;10.20;1.80;;;3.70;99.90;;;;;;4952996;28;20192;-83
2023/12/17 05:42:06;;;;;;;7.65;1.40;;;3.70;99.90;;;;;;4970239;28;20210;-83
2023/12/17 05:44:34;;;;;;;6.22;1.25;;;3.70;99.90;;;;;;4970340;28;20267;-83
2023/12/17 05:47:01;;;;;;;8.82;1.15;;;3.70;99.90;;;;;;4970190;28;20181;-83
2023/12/17 05:49:29;;;;;;;9.75;1.70;;;3.60;99.90;;;;;;4970109;28;20188;-83
2023/12/17 05:51:56;;;;;;;9.38;1.40;;;3.60;99.90;;;;;;4952689;28;20329;-83
2023/12/17 05:54:24;;;;;;;10.63;1.50;;;3.60;99.90;;;;;;4968384;28;20196;-83
2023/12/17 05:56:51;;;;;;;10.38;1.67;;;3.50;99.90;;;;;;4968165;28;20199;-82
2023/12/17 05:59:19;;;;;;;7.20;1.38;;;3.50;99.90;;;;;;4969899;28;20211;-82
2023/12/17 06:01:46;;;;;;;7.07;1.55;;;3.60;99.90;;;;;;4952677;28;20193;-83
2023/12/17 06:04:14;;;;;;;7.80;1.20;;;3.50;99.90;;;;;;4969774;28;20208;-83
2023/12/17 06:06:42;;;;;;;13.68;1.58;;;3.50;99.90;;;;;;4970421;28;20244;-82
2023/12/17 06:09:10;;;;;;;7.25;1.63;;;3.50;99.90;;;;;;4969879;28;20195;-81
2023/12/17 06:11:37;;;;;;;4.85;1.25;;;3.40;99.90;;;;;;4968435;28;20609;-83
2023/12/17 06:14:05;;;;;;;7.28;1.20;;;3.40;99.90;;;;;;4969701;28;20194;-82
2023/12/17 06:16:33;;;;;;;5.95;1.08;;;3.40;99.90;;;;;;4969796;28;20733;-81
2023/12/17 06:19:00;;;;;;;6.65;1.08;;;3.30;99.90;;;;;;4968239;28;20274;-81
2023/12/17 06:21:28;;;;;;;5.82;1.25;;;3.30;99.90;;;;;;4952322;28;20247;-84
2023/12/17 06:23:57;;;;;;;8.35;1.38;;;3.30;99.90;;;;;;4969786;28;20184;-83
2023/12/17 06:26:26;;;;;;;6.35;1.02;;;3.30;99.90;;;;;;4969649;28;20219;-82
2023/12/17 06:28:54;;;;;;;8.05;1.30;;;3.20;99.90;;;;;;4952482;28;20223;-82
2023/12/17 06:31:22;;;;;;;14.68;1.45;;;3.30;99.90;;;;;;4969963;28;20191;-82
2023/12/17 06:33:53;;;;;;;8.50;1.08;;;3.20;99.90;;;;;;4972728;28;20188;-82
2023/12/17 06:36:22;;;;;;;12.50;1.40;;;3.20;99.90;;;;;;4972104;28;20168;-83
2023/12/17 06:38:49;;;;;;;5.03;1.35;;;3.20;99.90;;;;;;4973031;28;20267;-82
2023/12/17 06:41:17;;;;;;;7.97;0.98;;;3.10;99.90;;;;;;4972961;28;20596;-80
2023/12/17 06:43:44;;;;;;;6.30;1.20;;;3.00;99.90;;;;;;4955540;28;20199;-82
2023/12/17 06:46:16;;;;;;;9.00;1.10;;;3.00;99.90;;;;;;4954470;28;20275;-81
2023/12/17 06:48:44;;;;;;;8.88;1.10;;;3.00;99.90;;;;;;4972640;28;20177;-82
2023/12/17 06:51:12;;;;;;;8.77;1.38;;;3.00;99.90;;;;;;4942765;29;20219;-83
2023/12/17 06:53:39;;;;;;;10.35;1.10;;;3.00;99.90;;;;;;4918668;29;20664;-82
2023/12/17 06:56:07;;;;;;;9.88;1.20;;;3.00;99.90;;;;;;4934954;29;20193;-83
2023/12/17 06:58:36;;;;;;;3.95;1.00;;;2.90;99.90;;;;;;4933534;29;20208;-83
2023/12/17 07:01:03;;;;;;;7.43;1.17;;;2.90;99.90;;;;;;4932928;29;20205;-83
2023/12/17 07:03:31;;;;;;;8.60;1.30;;;2.90;99.90;;;;;;4934756;29;20560;-83
2023/12/17 07:05:59;;;;;;;9.10;1.20;;;2.90;99.90;;;;;;4933152;29;20573;-80
2023/12/17 07:08:27;;;;;;;8.05;1.20;;;2.70;99.90;;;;;;4934701;29;20236;-83
2023/12/17 07:10:55;;;;;;;9.55;1.02;;;2.70;99.90;;;;;;4933155;29;20590;-83
2023/12/17 07:13:22;;;;;;;7.93;1.05;;;2.70;99.90;;;;;;4934846;29;20186;-82
2023/12/17 07:15:50;;;;;;;6.70;1.35;;;2.70;99.90;;;;;;4934864;29;20197;-83
2023/12/17 07:18:17;;;;;;;6.15;1.05;;;2.70;99.90;;;;;;4934548;29;20190;-84
2023/12/17 07:20:45;;;;;;;11.73;1.30;;;2.70;99.90;;;;;;4932936;29;20197;-82
2023/12/17 07:23:13;;;;;;;9.23;1.17;;;2.70;99.90;;;;;;4934105;29;20197;-82
2023/12/17 07:25:41;;;;;;;7.30;1.20;;;2.60;99.90;;;;;;4932932;29;20220;-82
2023/12/17 07:28:09;;;;;;;7.18;1.25;;;2.60;99.90;;;;;;4933298;29;20193;-82
2023/12/17 07:30:38;;;;;;;7.97;0.77;;;2.60;99.90;;;;;;4932284;29;20205;-82
2023/12/17 07:33:06;;;;;;;3.88;1.27;;;2.60;99.90;;;;;;4932092;29;20197;-84
2023/12/17 07:35:34;;;;;;;9.13;1.45;;;2.60;99.90;;;;;;4933210;29;20252;-82
2023/12/17 07:38:01;;;;;;;9.93;1.55;;;2.50;99.90;;;;;;4933563;29;20205;-83
2023/12/17 07:40:29;;;;;;;4.88;1.10;;;2.60;99.90;;;;;;4934433;29;20552;-82
2023/12/17 07:42:56;;;;;;;13.88;1.90;;;2.60;99.90;;;;;;4934037;29;20185;-82
2023/12/17 07:45:23;;;;;;;3.08;1.17;;;2.60;99.90;;;;;;4933147;29;20213;-81
2023/12/17 07:47:51;;;;;;;7.68;1.23;;;2.60;99.90;;;;;;4932244;29;20552;-82
2023/12/17 07:50:19;;;;;;;9.68;1.40;;;2.60;99.90;;;;;;4938913;28;20195;-83
2023/12/17 07:52:47;;;;;;;5.38;1.40;;;2.60;99.90;;;;;;4972065;28;20180;-82
2023/12/17 07:55:14;;;;;;;9.88;1.40;;;2.60;99.90;;;;;;4972221;28;20191;-81
2023/12/17 07:57:42;;;;;;;4.28;1.10;;;2.60;99.90;;;;;;4972541;28;20535;-82
2023/12/17 08:00:11;;;;;;;8.23;1.50;;;2.60;99.90;;;;;;4972603;28;20188;-82
2023/12/17 08:02:39;;;;;;;10.95;1.70;;;2.50;99.90;;;;;;4972146;28;20991;-84
2023/12/17 08:05:07;;;;;;;6.30;0.90;;;2.50;99.90;;;;;;4971615;28;20736;-82
2023/12/17 08:07:36;;;;;;;6.95;1.30;;;2.60;99.90;;;;;;4968583;28;20188;-82
2023/12/17 08:10:06;;;;;;;9.20;1.50;;;2.60;99.90;;;;;;4970634;28;20211;-84
2023/12/17 08:12:34;;;;;;;6.80;1.10;;;2.60;99.90;;;;;;4972033;28;20196;-82
2023/12/17 08:15:01;;;;;;;13.05;1.38;;;2.50;99.90;;;;;;4954891;28;20207;-83
2023/12/17 08:17:29;;;;;;;6.20;1.35;;;2.50;99.90;;;;;;4972223;28;20188;-84
2023/12/17 08:19:57;;;;;;;6.05;1.05;;;2.50;99.90;;;;;;4954933;28;20212;-82
2023/12/17 08:22:24;;;;;;;5.15;1.23;;;2.50;99.90;;;;;;4971813;28;20192;-84
2023/12/17 08:24:52;;;;;;;5.22;1.00;;;2.50;99.90;;;;;;4954053;28;20212;-82
2023/12/17 08:27:19;;;;;;;10.90;1.23;;;2.60;99.90;;;;;;4971627;28;20184;-83
2023/12/17 08:29:50;;;;;;;4.25;1.10;;;2.50;99.90;;;;;;4971531;28;20184;-81
2023/12/17 08:32:18;;;;;;;7.03;0.98;;;2.50;99.90;;;;;;4954671;28;20796;-83
2023/12/17 08:34:46;;;;;;;10.40;1.45;;;2.50;99.90;;;;;;4953922;28;20196;-83
2023/12/17 08:37:13;;;;;;;5.82;1.00;;;2.50;99.90;;;;;;4971810;28;20282;-83
2023/12/17 08:39:41;;;;;;;8.85;1.50;;;2.50;99.90;;;;;;4971439;28;20262;-82
2023/12/17 08:42:08;;;;;;;10.02;1.23;;;2.60;99.90;;;;;;4971340;28;20193;-82
2023/12/17 08:44:35;;;;;;;6.70;1.30;;;2.60;99.90;;;;;;4971475;28;20184;-83
2023/12/17 08:47:03;;;;;;;9.48;1.15;;;2.50;99.90;;;;;;4971331;28;20262;-81
2023/12/17 08:49:30;;;;;;;10.18;1.35;;;2.60;99.90;;;;;;4954109;28;20188;-83
2023/12/17 08:51:58;;;;;;;9.38;1.75;;;2.50;99.90;;;;;;4971166;28;20990;-83
2023/12/17 08:54:25;;;;;;;9.20;1.30;;;2.50;99.90;;;;;;4971621;28;20235;-81
2023/12/17 08:56:53;;;;;;;6.63;1.17;;;2.60;99.90;;;;;;4971207;28;20681;-82
2023/12/17 08:59:20;;;;;;;15.88;1.65;;;2.50;99.90;;;;;;4971321;28;20266;-83
2023/12/17 09:01:49;;;;;;;7.15;1.10;;;2.50;99.90;;;;;;4971018;28;20689;-83
2023/12/17 09:04:17;;;;;;;7.63;1.10;;;2.60;99.90;;;;;;4971159;28;20530;-83
2023/12/17 09:06:47;;;;;;;7.00;0.90;;;2.60;99.90;;;;;;4970974;28;20211;-83
2023/12/17 09:09:15;;;;;;;6.13;0.95;;;2.60;99.90;;;;;;4971234;28;20187;-83
2023/12/17 09:11:43;;;;;;;8.10;1.30;;;2.70;99.90;;;;;;4970868;28;20187;-81
2023/12/17 09:14:10;;;;;;;7.60;1.30;;;2.70;99.90;;;;;;4971012;28;20666;-82
2023/12/17 09:16:38;;;;;;;3.63;1.15;;;2.70;99.90;;;;;;4970992;28;20289;-83
2023/12/17 09:19:05;;;;;;;5.72;1.00;;;2.80;99.90;;;;;;4971018;28;20184;-82
2023/12/17 09:21:33;;;;;;;8.23;1.15;;;2.70;99.90;;;;;;4954179;28;20202;-83
2023/12/17 09:24:01;;;;;;;8.02;1.20;;;2.60;99.90;;;;;;4971100;28;20195;-82
2023/12/17 09:26:28;;;;;;;6.07;0.88;;;2.70;99.90;;;;;;4953572;28;20245;-81
2023/12/17 09:28:55;;;;;;;4.20;1.00;;;2.60;99.90;;;;;;4953650;28;20247;-81
2023/12/17 09:31:23;;;;;;;10.45;1.20;;;2.70;99.90;;;;;;4953522;28;20186;-80
2023/12/17 09:33:51;;;;;;;5.93;1.40;;;2.70;99.90;;;;;;4970678;28;20211;-83
2023/12/17 09:36:18;;;;;;;9.73;1.52;;;2.60;99.90;;;;;;4953634;28;20199;-82
2023/12/17 09:38:46;;;;;;;7.32;1.10;;;2.70;99.90;;;;;;4952197;28;20291;-82
2023/12/17 09:41:13;;;;;;;9.43;1.10;;;2.70;99.90;;;;;;4968358;28;21106;-80
2023/12/17 09:43:41;;;;;;;5.93;1.00;;;2.70;99.90;;;;;;4968821;28;20184;-80
2023/12/17 09:46:09;;;;;;;9.07;1.20;;;2.70;99.90;;;;;;4968955;28;20227;-81
2023/12/17 09:48:38;;;;;;;7.93;1.23;;;2.60;99.90;;;;;;4968431;28;20278;-81
2023/12/17 09:51:13;;;;;;;7.20;1.35;;;2.70;99.90;;;;;;4945627;28;20230;-80
2023/12/17 09:53:41;;;;;;;5.47;1.00;;;2.60;99.90;;;;;;4970473;28;20222;-82
2023/12/17 09:56:10;;;;;;;11.18;1.33;;;2.60;99.90;;;;;;4970313;28;20279;-80
2023/12/17 09:58:38;;;;;;;6.05;1.58;;;2.60;99.90;;;;;;4970355;28;20192;-82
2023/12/17 10:01:06;;;;;;;5.60;1.40;;;2.70;99.90;;;;;;4970446;28;20194;-81
2023/12/17 10:03:33;;;;;;;5.07;1.05;;;2.70;99.90;;;;;;4970469;28;20658;-82
2023/12/17 10:06:03;;;;;;;4.32;1.02;;;2.80;99.90;;;;;;4970555;28;20212;-82
2023/12/17 10:08:32;;;;;;;5.43;1.13;;;2.80;99.90;;;;;;4973068;28;20222;-81
2023/12/17 10:11:00;;;;;;;11.48;1.17;;;2.80;99.90;;;;;;4974433;28;20214;-81
2023/12/17 10:13:28;;;;;;;3.22;0.95;;;2.80;99.90;;;;;;4973992;28;20262;-81
2023/12/17 10:15:56;;;;;;;6.35;1.23;;;2.80;99.90;;;;;;4973899;28;20199;-80
2023/12/17 10:18:24;;;;;;;9.73;1.15;;;2.80;99.90;;;;;;4973929;28;20188;-83
2023/12/17 10:20:55;;;;;;;8.38;1.45;;;2.90;99.90;;;;;;4973802;28;20183;-81
2023/12/17 10:23:23;;;;;;;10.68;1.20;;;2.80;99.90;;;;;;4956521;28;20622;-83
2023/12/17 10:26:03;;;;;;;6.35;1.13;;;2.90;99.90;;;;;;4974440;28;20609;-81
2023/12/17 10:28:35;;;;;;;4.53;1.30;;;3.00;99.90;;;;;;4946765;29;20671;-80
2023/12/17 10:31:03;;;;;;;7.80;1.60;;;3.10;99.90;;;;;;4954439;29;20185;-83
2023/12/17 10:33:39;;;;;;;9.93;1.25;;;3.10;99.90;;;;;;4954379;29;20197;-82
2023/12/17 10:36:11;;;;;;;9.02;1.27;;;3.10;99.90;;;;;;4956437;28;20800;-81
2023/12/17 10:38:40;;;;;;;5.35;1.30;;;3.20;99.90;;;;;;4956093;28;20265;-81
2023/12/17 10:41:09;;;;;;;4.47;1.20;;;3.20;99.90;;;;;;4973370;28;20188;-81
2023/12/17 10:43:41;;;;;;;6.47;1.30;;;3.20;99.90;;;;;;4972219;28;20752;-82
2023/12/17 10:46:13;;;;;;;8.18;1.30;;;3.10;99.90;;;;;;4956210;28;20220;-81
2023/12/17 10:48:41;;;;;;;10.40;1.33;;;3.00;99.90;;;;;;4973636;28;20212;-82
2023/12/17 10:51:16;;;;;;;9.48;1.42;;;3.00;99.90;;;;;;4952632;29;20232;-81
2023/12/17 10:53:46;;;;;;;6.30;1.30;;;2.90;99.90;;;;;;4954219;29;20200;-81
2023/12/17 10:56:15;;;;;;;7.88;1.80;;;2.90;99.90;;;;;;4952672;29;20197;-81
2023/12/17 10:58:43;;;;;;;8.70;1.00;;;2.80;99.90;;;;;;4953745;28;20667;-82
2023/12/17 11:01:11;;;;;;;3.28;1.02;;;2.80;99.90;;;;;;4953694;28;20204;-82
2023/12/17 11:03:40;;;;;;;10.95;1.35;;;2.90;99.90;;;;;;4954019;29;20193;-82
2023/12/17 11:06:08;;;;;;;3.92;1.35;;;2.80;99.90;;;;;;4952259;29;20674;-82
2023/12/17 11:08:36;;;;;;;6.88;1.25;;;2.70;99.90;;;;;;4953775;29;20546;-80
2023/12/17 11:11:04;;;;;;;8.70;1.25;;;2.70;99.90;;;;;;4953621;29;20192;-82
2023/12/17 11:13:31;;;;;;;10.23;1.27;;;2.70;99.90;;;;;;4953800;29;20192;-82
2023/12/17 11:16:21;;;;;;;7.40;1.50;;;2.70;99.90;;;;;;4953682;29;20188;-83
2023/12/17 11:18:50;;;;;;;4.93;1.25;;;2.70;99.90;;;;;;4967302;28;20174;-83
2023/12/17 11:21:18;;;;;;;10.75;1.02;;;2.70;99.90;;;;;;4953913;28;20589;-82
2023/12/17 11:23:47;;;;;;;7.38;1.13;;;2.70;99.90;;;;;;4952023;29;20200;-83
2023/12/17 11:26:16;;;;;;;6.88;1.38;;;2.70;99.90;;;;;;4953383;29;20209;-82
2023/12/17 11:28:44;;;;;;;7.38;1.05;;;2.70;99.90;;;;;;4967968;28;20189;-81
2023/12/17 11:31:12;;;;;;;5.32;0.95;;;2.60;99.90;;;;;;4953494;29;20193;-81
2023/12/17 11:33:47;;;;;;;5.25;1.00;;;2.60;99.90;;;;;;4953327;29;20181;-81
2023/12/17 11:36:17;;;;;;;4.65;0.90;;;2.50;99.90;;;;;;4953455;29;20176;-83
2023/12/17 11:38:46;;;;;;;7.60;1.00;;;2.60;99.90;;;;;;4953209;29;20189;-82
2023/12/17 11:41:13;;;;;;;3.80;1.10;;;2.60;99.90;;;;;;4952239;28;20267;-82
2023/12/17 11:43:41;;;;;;;7.63;1.45;;;2.60;99.90;;;;;;4953017;29;20193;-82
2023/12/17 11:46:11;;;;;;;6.68;1.20;;;2.60;99.90;;;;;;4953107;28;20287;-82
2023/12/17 11:48:42;;;;;;;11.10;1.52;;;2.50;99.90;;;;;;4951514;29;20180;-82
2023/12/17 11:51:24;;;;;;;7.18;1.35;;;2.60;99.90;;;;;;4962186;28;20228;-82
2023/12/17 11:53:52;;;;;;;5.43;1.10;;;2.60;99.90;;;;;;4954788;28;20231;-82
2023/12/17 11:56:30;;;;;;;5.25;1.27;;;2.60;99.90;;;;;;4972058;28;20188;-80
2023/12/17 11:58:58;;;;;;;5.32;1.33;;;2.50;99.90;;;;;;4971921;28;20812;-82
2023/12/17 12:01:26;;;;;;;8.68;1.42;;;2.60;99.90;;;;;;4971817;28;20207;-84
2023/12/17 12:03:59;;;;;;;3.97;1.40;;;2.60;99.90;;;;;;4971195;28;20278;-85
2023/12/17 12:06:29;;;;;;;6.15;1.30;;;2.50;99.90;;;;;;4971133;28;20207;-81
2023/12/17 12:08:59;;;;;;;11.40;1.58;;;2.60;99.90;;;;;;4970910;28;20192;-82
2023/12/17 12:11:36;;;;;;;5.70;1.27;;;2.60;99.90;;;;;;4971043;28;20199;-81
2023/12/17 12:14:08;;;;;;;6.32;1.30;;;2.50;99.90;;;;;;4952228;28;20658;-82
2023/12/17 12:16:40;;;;;;;5.05;1.52;;;2.50;99.90;;;;;;4970808;28;20226;-82
2023/12/17 12:19:09;;;;;;;10.20;1.73;;;2.50;99.90;;;;;;4971474;28;20187;-83
2023/12/17 12:21:51;;;;;;;6.25;1.42;;;2.60;99.90;;;;;;4937585;28;20581;-83
2023/12/17 12:24:20;;;;;;;11.02;1.90;;;2.50;99.90;;;;;;4968959;28;20251;-83
2023/12/17 12:26:50;;;;;;;6.57;1.80;;;2.50;99.90;;;;;;4970964;28;20211;-83
2023/12/17 12:29:18;;;;;;;5.53;1.67;;;2.50;99.90;;;;;;4948673;28;20557;-81
2023/12/17 12:31:52;;;;;;;9.40;1.85;;;2.60;99.90;;;;;;4971019;28;20227;-82
2023/12/17 12:34:20;;;;;;;8.35;1.70;;;2.60;99.90;;;;;;4969562;28;20218;-82
2023/12/17 12:36:48;;;;;;;10.32;1.90;;;2.50;99.90;;;;;;4952126;28;20738;-83
2023/12/17 12:39:18;;;;;;;5.20;1.60;;;2.50;99.90;;;;;;4934905;29;20666;-82
2023/12/17 12:41:47;;;;;;;8.85;1.88;;;2.40;99.90;;;;;;4935311;29;20740;-81
2023/12/17 12:44:16;;;;;;;7.57;2.17;;;2.40;99.90;;;;;;4952331;29;20196;-82
2023/12/17 12:46:49;;;;;;;9.55;1.90;;;2.40;99.90;;;;;;4950995;29;20216;-83
2023/12/17 12:49:19;;;;;;;9.93;2.40;;;2.50;99.90;;;;;;4935661;29;20730;-82
2023/12/17 12:51:47;;;;;;;8.73;2.45;;;2.50;99.90;;;;;;4951890;29;20220;-81
2023/12/17 12:54:15;;;;;;;8.18;2.25;;;2.40;99.90;;;;;;4951876;29;20685;-82
2023/12/17 12:56:43;;;;;;;8.35;2.17;;;2.40;99.90;;;;;;4951937;29;20658;-82
2023/12/17 12:59:11;;;;;;;12.88;2.88;;;2.40;99.90;;;;;;4951762;29;20189;-82
2023/12/17 13:01:54;;;;;;;8.77;2.45;;;2.40;99.90;;;;;;4960197;28;20211;-83